createdAt,value
2022-09-13T00:00:17.079Z,39.49
2022-09-13T00:00:41.356Z,39.36
2022-09-13T00:01:04.256Z,39.32
2022-09-13T00:01:26.923Z,39.28
2022-09-13T00:01:48.651Z,38.93
2022-09-13T00:02:10.292Z,39.17
2022-09-13T00:02:32.496Z,39.36
2022-09-13T00:02:54.163Z,39.08
2022-09-13T00:03:18.911Z,39.70
2022-09-13T00:03:40.583Z,39.42
2022-09-13T00:04:02.619Z,39.52
2022-09-13T00:04:24.230Z,39.39
2022-09-13T00:04:46.746Z,39.13
2022-09-13T00:05:09.302Z,39.12
2022-09-13T00:05:32.363Z,39.06
2022-09-13T00:05:54.019Z,39.32
2022-09-13T00:06:18.828Z,38.83
2022-09-13T00:06:40.399Z,39.27
2022-09-13T00:07:02.002Z,39.18
2022-09-13T00:07:23.636Z,39.03
2022-09-13T00:07:45.224Z,38.99
2022-09-13T00:08:08.544Z,39.09
2022-09-13T00:08:30.115Z,39.07
2022-09-13T00:08:53.113Z,38.95
2022-09-13T00:09:14.688Z,38.87
2022-09-13T00:09:37.881Z,38.95
2022-09-13T00:09:59.446Z,39.38
2022-09-13T00:10:21.492Z,39.18
2022-09-13T00:10:44.565Z,39.57
2022-09-13T00:11:07.982Z,39.92
2022-09-13T00:11:31.215Z,39.13
2022-09-13T00:11:52.777Z,39.25
2022-09-13T00:12:15.352Z,39.30
2022-09-13T00:12:37.879Z,39.84
2022-09-13T00:12:59.501Z,39.50
2022-09-13T00:13:21.107Z,39.11
2022-09-13T00:13:42.805Z,39.01
2022-09-13T00:14:05.479Z,39.43
2022-09-13T00:14:27.053Z,39.59
2022-09-13T00:14:48.627Z,40.14
2022-09-13T00:15:11.759Z,40.13
2022-09-13T00:15:34.314Z,40.33
2022-09-13T00:15:55.947Z,40.30
2022-09-13T00:16:19.974Z,40.51
2022-09-13T00:16:41.648Z,40.41
2022-09-13T00:17:04.264Z,40.32
2022-09-13T00:17:26.767Z,40.69
2022-09-13T00:17:48.532Z,40.67
2022-09-13T00:18:10.118Z,40.78
2022-09-13T00:18:33.688Z,40.32
2022-09-13T00:18:56.433Z,40.06
2022-09-13T00:19:18.141Z,39.73
2022-09-13T00:19:39.707Z,40.29
2022-09-13T00:20:01.586Z,40.16
2022-09-13T00:20:23.273Z,40.25
2022-09-13T00:20:45.851Z,39.69
2022-09-13T00:21:09.613Z,39.85
2022-09-13T00:21:32.343Z,39.35
2022-09-13T00:21:53.926Z,39.74
2022-09-13T00:22:15.498Z,39.45
2022-09-13T00:22:37.353Z,39.82
2022-09-13T00:22:59.017Z,39.63
2022-09-13T00:23:21.495Z,39.44
2022-09-13T00:23:44.725Z,39.53
2022-09-13T00:24:06.544Z,39.27
2022-09-13T00:24:28.153Z,39.57
2022-09-13T00:24:50.680Z,39.47
2022-09-13T00:25:12.383Z,39.49
2022-09-13T00:25:34.166Z,39.57
2022-09-13T00:26:03.694Z,39.55
2022-09-13T00:26:28.095Z,39.57
2022-09-13T00:26:49.687Z,39.21
2022-09-13T00:27:12.868Z,39.33
2022-09-13T00:27:35.852Z,39.56
2022-09-13T00:27:57.428Z,39.44
2022-09-13T00:28:19.994Z,39.67
2022-09-13T00:28:42.356Z,39.45
2022-09-13T00:29:03.955Z,39.37
2022-09-13T00:29:26.627Z,39.70
2022-09-13T00:29:48.228Z,39.86
2022-09-13T00:30:11.104Z,39.52
2022-09-13T00:30:33.421Z,39.44
2022-09-13T00:30:55.061Z,39.56
2022-09-13T00:31:18.172Z,39.85
2022-09-13T00:31:39.954Z,39.51
2022-09-13T00:32:01.976Z,39.62
2022-09-13T00:32:23.624Z,39.84
2022-09-13T00:32:46.203Z,39.52
2022-09-13T00:33:07.803Z,39.88
2022-09-13T00:33:29.360Z,39.52
2022-09-13T00:33:52.300Z,39.42
2022-09-13T00:34:13.853Z,39.68
2022-09-13T00:34:36.527Z,39.55
2022-09-13T00:34:58.136Z,39.69
2022-09-13T00:35:19.742Z,39.67
2022-09-13T00:35:41.332Z,40.07
2022-09-13T00:36:06.978Z,39.92
2022-09-13T00:36:29.932Z,40.12
2022-09-13T00:36:51.509Z,40.32
2022-09-13T00:37:13.100Z,40.12
2022-09-13T00:37:34.687Z,40.20
2022-09-13T00:37:56.220Z,40.39
2022-09-13T00:38:18.768Z,40.20
2022-09-13T00:38:41.381Z,40.08
2022-09-13T00:39:03.248Z,40.20
2022-09-13T00:39:24.872Z,40.25
2022-09-13T00:39:49.742Z,40.23
2022-09-13T00:40:11.945Z,40.22
2022-09-13T00:40:37.601Z,40.24
2022-09-13T00:41:00.163Z,40.06
2022-09-13T00:41:22.230Z,40.46
2022-09-13T00:41:43.836Z,40.07
2022-09-13T00:42:05.484Z,40.31
2022-09-13T00:42:29.568Z,40.03
2022-09-13T00:42:51.125Z,40.40
2022-09-13T00:43:17.896Z,40.29
2022-09-13T00:43:46.321Z,40.32
2022-09-13T00:44:42.449Z,40.39
2022-09-13T00:45:15.825Z,40.14
2022-09-13T00:45:39.041Z,40.33
2022-09-13T00:46:01.971Z,40.28
2022-09-13T00:46:32.514Z,40.33
2022-09-13T00:47:43.519Z,40.12
2022-09-13T00:48:07.981Z,40.13
2022-09-13T00:48:29.652Z,40.17
2022-09-13T00:48:57.035Z,40.80
2022-09-13T00:49:25.074Z,40.23
2022-09-13T00:49:50.748Z,40.30
2022-09-13T00:50:18.070Z,40.08
2022-09-13T00:50:43.617Z,40.51
2022-09-13T00:51:10.089Z,40.38
2022-09-13T00:51:32.006Z,40.29
2022-09-13T00:52:00.066Z,40.20
2022-09-13T00:52:24.090Z,39.77
2022-09-13T00:52:53.462Z,40.21
2022-09-13T00:53:19.493Z,41.08
2022-09-13T00:53:47.581Z,40.59
2022-09-13T00:54:10.809Z,40.38
2022-09-13T00:54:39.631Z,40.16
2022-09-13T00:55:04.312Z,39.83
2022-09-13T00:55:33.394Z,40.01
2022-09-13T00:55:58.589Z,39.51
2022-09-13T00:56:25.078Z,40.01
2022-09-13T00:56:50.783Z,39.90
2022-09-13T00:57:16.381Z,39.89
2022-09-13T00:57:39.316Z,40.67
2022-09-13T00:58:05.956Z,40.08
2022-09-13T00:58:32.728Z,39.84
2022-09-13T00:58:58.939Z,39.64
2022-09-13T00:59:23.881Z,39.65
2022-09-13T00:59:51.529Z,39.65
2022-09-13T01:00:17.489Z,40.20
2022-09-13T01:00:40.366Z,40.17
2022-09-13T01:01:05.329Z,40.21
2022-09-13T01:01:34.244Z,39.92
2022-09-13T01:01:57.115Z,39.73
2022-09-13T01:02:19.255Z,39.94
2022-09-13T01:02:48.588Z,40.18
2022-09-13T01:03:13.568Z,39.87
2022-09-13T01:03:36.758Z,39.77
2022-09-13T01:04:01.283Z,39.78
2022-09-13T01:04:26.383Z,40.05
2022-09-13T01:04:48.029Z,39.94
2022-09-13T01:05:10.856Z,39.96
2022-09-13T01:05:36.841Z,40.38
2022-09-13T01:06:04.545Z,40.42
2022-09-13T01:06:29.382Z,40.35
2022-09-13T01:06:54.669Z,40.07
2022-09-13T01:07:18.448Z,40.46
2022-09-13T01:07:41.787Z,40.17
2022-09-13T01:08:10.142Z,40.07
2022-09-13T01:08:32.953Z,40.29
2022-09-13T01:08:54.821Z,39.97
2022-09-13T01:09:17.600Z,40.00
2022-09-13T01:09:44.070Z,40.20
2022-09-13T01:10:07.996Z,40.64
2022-09-13T01:10:31.627Z,40.58
2022-09-13T01:10:58.200Z,40.68
2022-09-13T01:11:27.767Z,40.51
2022-09-13T01:11:55.586Z,40.67
2022-09-13T01:12:28.271Z,40.42
2022-09-13T01:12:56.871Z,40.24
2022-09-13T01:13:20.949Z,40.35
2022-09-13T01:13:44.064Z,40.21
2022-09-13T01:14:06.904Z,40.59
2022-09-13T01:14:29.656Z,40.88
2022-09-13T01:14:52.449Z,40.60
2022-09-13T01:15:14.004Z,40.81
2022-09-13T01:15:36.562Z,40.65
2022-09-13T01:15:58.966Z,40.51
2022-09-13T01:16:20.870Z,40.22
2022-09-13T01:16:47.197Z,40.42
2022-09-13T01:17:10.826Z,40.17
2022-09-13T01:17:33.901Z,40.35
2022-09-13T01:17:56.084Z,40.54
2022-09-13T01:18:18.402Z,40.02
2022-09-13T01:18:40.977Z,40.24
2022-09-13T01:19:04.387Z,40.27
2022-09-13T01:19:26.086Z,40.34
2022-09-13T01:19:47.756Z,40.41
2022-09-13T01:20:11.352Z,40.61
2022-09-13T01:20:44.076Z,40.54
2022-09-13T01:21:34.506Z,40.54
2022-09-13T01:22:21.768Z,40.61
2022-09-13T01:23:28.985Z,40.58
2022-09-13T01:24:31.781Z,40.77
2022-09-13T01:25:15.672Z,40.33
2022-09-13T01:26:17.567Z,40.50
2022-09-13T01:27:18.253Z,40.96
2022-09-13T01:28:05.415Z,40.80
2022-09-13T01:28:49.107Z,40.80
2022-09-13T01:29:44.491Z,40.95
2022-09-13T01:30:25.151Z,40.46
2022-09-13T01:30:53.165Z,40.90
2022-09-13T01:31:28.446Z,40.61
2022-09-13T01:31:57.798Z,40.74
2022-09-13T01:32:30.497Z,40.80
2022-09-13T01:33:27.438Z,40.67
2022-09-13T01:34:01.409Z,40.90
2022-09-13T01:34:35.752Z,41.08
2022-09-13T01:35:05.508Z,40.88
2022-09-13T01:35:41.142Z,40.87
2022-09-13T01:36:32.730Z,41.04
2022-09-13T01:37:17.956Z,40.87
2022-09-13T01:37:52.668Z,40.68
2022-09-13T01:38:29.606Z,41.04
2022-09-13T01:38:59.464Z,40.79
2022-09-13T01:39:35.249Z,40.79
2022-09-13T01:40:05.522Z,40.84
2022-09-13T01:40:43.958Z,40.78
2022-09-13T01:41:15.585Z,41.08
2022-09-13T01:42:00.172Z,41.03
2022-09-13T01:42:34.345Z,41.23
2022-09-13T01:43:11.741Z,41.48
2022-09-13T01:43:43.795Z,41.45
2022-09-13T01:44:13.925Z,41.29
2022-09-13T01:44:57.572Z,41.74
2022-09-13T01:45:33.261Z,41.58
2022-09-13T01:46:04.634Z,41.29
2022-09-13T01:46:30.823Z,41.50
2022-09-13T01:47:14.126Z,41.09
2022-09-13T01:47:45.891Z,41.45
2022-09-13T01:48:15.453Z,41.18
2022-09-13T01:48:53.849Z,41.14
2022-09-13T01:49:21.711Z,41.96
2022-09-13T01:49:52.629Z,41.30
2022-09-13T01:50:22.785Z,41.35
2022-09-13T01:50:48.059Z,41.64
2022-09-13T01:51:17.835Z,42.11
2022-09-13T01:51:49.675Z,41.21
2022-09-13T01:52:20.713Z,41.45
2022-09-13T01:52:50.414Z,41.10
2022-09-13T01:53:20.726Z,40.89
2022-09-13T01:53:52.042Z,41.09
2022-09-13T01:54:20.416Z,40.83
2022-09-13T01:54:52.097Z,40.73
2022-09-13T01:55:23.661Z,40.80
2022-09-13T01:55:51.790Z,40.86
2022-09-13T01:56:21.650Z,40.84
2022-09-13T01:56:52.909Z,41.17
2022-09-13T01:57:20.872Z,41.26
2022-09-13T01:57:48.024Z,40.86
2022-09-13T01:58:20.953Z,41.07
2022-09-13T01:58:50.004Z,41.14
2022-09-13T01:59:16.419Z,41.06
2022-09-13T01:59:46.664Z,41.46
2022-09-13T02:00:14.206Z,41.19
2022-09-13T02:00:45.585Z,41.54
2022-09-13T02:01:16.542Z,41.44
2022-09-13T02:01:45.608Z,41.47
2022-09-13T02:02:13.055Z,41.16
2022-09-13T02:02:39.834Z,41.42
2022-09-13T02:03:07.088Z,41.47
2022-09-13T02:03:34.471Z,41.32
2022-09-13T02:04:00.639Z,41.19
2022-09-13T02:04:27.153Z,41.24
2022-09-13T02:04:54.189Z,41.17
2022-09-13T02:05:21.247Z,41.54
2022-09-13T02:05:47.430Z,41.55
2022-09-13T02:06:13.808Z,41.27
2022-09-13T02:06:41.480Z,41.16
2022-09-13T02:07:09.136Z,41.21
2022-09-13T02:07:36.658Z,41.28
2022-09-13T02:08:04.534Z,41.21
2022-09-13T02:08:35.074Z,41.21
2022-09-13T02:09:00.972Z,41.27
2022-09-13T02:09:26.632Z,41.27
2022-09-13T02:09:52.699Z,41.48
2022-09-13T02:10:24.215Z,41.30
2022-09-13T02:10:49.509Z,41.00
2022-09-13T02:11:13.204Z,41.28
2022-09-13T02:11:37.812Z,41.40
2022-09-13T02:12:06.335Z,41.39
2022-09-13T02:12:31.911Z,41.40
2022-09-13T02:12:55.093Z,41.04
2022-09-13T02:13:21.644Z,41.14
2022-09-13T02:13:49.440Z,41.32
2022-09-13T02:14:15.234Z,41.33
2022-09-13T02:14:40.035Z,41.04
2022-09-13T02:15:09.726Z,41.37
2022-09-13T02:15:36.850Z,41.33
2022-09-13T02:16:08.324Z,41.21
2022-09-13T02:16:34.276Z,41.28
2022-09-13T02:17:01.556Z,41.19
2022-09-13T02:17:26.044Z,41.46
2022-09-13T02:17:53.458Z,41.41
2022-09-13T02:18:19.892Z,41.65
2022-09-13T02:18:47.861Z,41.41
2022-09-13T02:19:14.989Z,41.28
2022-09-13T02:19:40.557Z,41.27
2022-09-13T02:20:06.154Z,41.81
2022-09-13T02:20:31.454Z,41.52
2022-09-13T02:20:59.329Z,41.63
2022-09-13T02:21:27.016Z,41.23
2022-09-13T02:21:53.537Z,41.58
2022-09-13T02:22:19.904Z,41.44
2022-09-13T02:22:49.298Z,41.75
2022-09-13T02:23:15.710Z,41.72
2022-09-13T02:23:41.125Z,41.32
2022-09-13T02:24:07.126Z,41.59
2022-09-13T02:24:33.131Z,41.17
2022-09-13T02:25:00.168Z,41.36
2022-09-13T02:25:24.593Z,41.42
2022-09-13T02:25:50.561Z,41.40
2022-09-13T02:26:15.164Z,41.31
2022-09-13T02:26:39.303Z,41.38
2022-09-13T02:27:05.388Z,41.15
2022-09-13T02:27:33.156Z,41.13
2022-09-13T02:28:01.425Z,41.07
2022-09-13T02:28:28.984Z,41.38
2022-09-13T02:28:52.549Z,41.44
2022-09-13T02:29:21.049Z,41.48
2022-09-13T02:29:45.656Z,41.19
2022-09-13T02:30:10.231Z,41.32
2022-09-13T02:30:40.183Z,41.52
2022-09-13T02:31:09.026Z,41.42
2022-09-13T02:31:37.032Z,41.36
2022-09-13T02:32:03.387Z,41.26
2022-09-13T02:32:30.383Z,41.55
2022-09-13T02:32:57.258Z,41.62
2022-09-13T02:33:24.153Z,41.32
2022-09-13T02:33:51.987Z,40.99
2022-09-13T02:34:19.910Z,41.09
2022-09-13T02:34:46.296Z,40.83
2022-09-13T02:35:16.204Z,41.35
2022-09-13T02:35:43.619Z,41.43
2022-09-13T02:36:09.836Z,41.29
2022-09-13T02:36:35.580Z,41.17
2022-09-13T02:36:58.224Z,41.01
2022-09-13T02:37:20.470Z,41.15
2022-09-13T02:37:47.103Z,41.19
2022-09-13T02:38:13.901Z,40.96
2022-09-13T02:38:40.969Z,41.12
2022-09-13T02:39:06.504Z,41.25
2022-09-13T02:39:33.250Z,41.11
2022-09-13T02:39:59.717Z,41.06
2022-09-13T02:40:27.354Z,41.07
2022-09-13T02:40:57.511Z,41.00
2022-09-13T02:41:27.477Z,40.83
2022-09-13T02:41:54.291Z,41.06
2022-09-13T02:42:19.839Z,41.01
2022-09-13T02:42:45.649Z,40.96
2022-09-13T02:43:12.417Z,41.04
2022-09-13T02:43:38.272Z,40.84
2022-09-13T02:44:10.546Z,40.91
2022-09-13T02:44:37.245Z,41.00
2022-09-13T02:44:59.710Z,41.13
2022-09-13T02:45:26.777Z,41.21
2022-09-13T02:45:54.313Z,40.68
2022-09-13T02:46:26.626Z,41.04
2022-09-13T02:47:01.421Z,40.65
2022-09-13T02:47:38.972Z,40.91
2022-09-13T02:48:10.259Z,40.98
2022-09-13T02:48:41.191Z,40.89
2022-09-13T02:49:13.136Z,40.82
2022-09-13T02:49:44.800Z,41.82
2022-09-13T02:50:31.907Z,41.18
2022-09-13T02:51:00.445Z,40.94
2022-09-13T02:51:30.653Z,40.82
2022-09-13T02:51:56.260Z,41.12
2022-09-13T02:52:31.432Z,41.17
2022-09-13T02:53:02.621Z,40.95
2022-09-13T02:53:30.690Z,41.61
2022-09-13T02:54:01.808Z,41.04
2022-09-13T02:54:31.684Z,40.68
2022-09-13T02:54:57.815Z,40.88
2022-09-13T02:55:25.741Z,40.88
2022-09-13T02:55:55.072Z,41.15
2022-09-13T02:56:24.000Z,41.07
2022-09-13T02:56:53.959Z,41.11
2022-09-13T02:57:21.691Z,41.07
2022-09-13T02:57:54.171Z,41.12
2022-09-13T02:58:26.825Z,40.99
2022-09-13T02:58:56.891Z,41.05
2022-09-13T02:59:21.924Z,40.81
2022-09-13T02:59:47.025Z,40.91
2022-09-13T03:00:10.053Z,40.98
2022-09-13T03:00:31.883Z,40.63
2022-09-13T03:00:54.219Z,40.73
2022-09-13T03:01:16.049Z,40.75
2022-09-13T03:01:42.624Z,41.12
2022-09-13T03:02:08.631Z,40.95
2022-09-13T03:02:33.093Z,41.03
2022-09-13T03:02:57.556Z,41.15
2022-09-13T03:03:19.189Z,41.13
2022-09-13T03:03:41.071Z,41.31
2022-09-13T03:04:03.447Z,41.15
2022-09-13T03:04:25.600Z,40.93
2022-09-13T03:04:50.618Z,41.10
2022-09-13T03:05:12.333Z,41.16
2022-09-13T03:05:33.901Z,40.96
2022-09-13T03:05:55.885Z,41.29
2022-09-13T03:06:22.780Z,41.21
2022-09-13T03:06:45.709Z,41.18
2022-09-13T03:07:10.816Z,41.13
2022-09-13T03:07:32.407Z,41.59
2022-09-13T03:07:54.925Z,41.27
2022-09-13T03:08:18.275Z,40.99
2022-09-13T03:08:40.976Z,41.63
2022-09-13T03:09:06.013Z,42.03
2022-09-13T03:09:28.026Z,42.23
2022-09-13T03:09:54.392Z,41.99
2022-09-13T03:10:17.778Z,41.57
2022-09-13T03:10:52.082Z,41.32
2022-09-13T03:11:25.056Z,41.33
2022-09-13T03:12:00.278Z,41.64
2022-09-13T03:12:40.827Z,41.25
2022-09-13T03:13:28.578Z,41.40
2022-09-13T03:14:08.323Z,41.36
2022-09-13T03:14:44.356Z,41.74
2022-09-13T03:15:14.258Z,41.68
2022-09-13T03:15:52.836Z,41.56
2022-09-13T03:16:31.033Z,41.55
2022-09-13T03:17:13.693Z,41.65
2022-09-13T03:17:48.271Z,41.48
2022-09-13T03:18:23.823Z,41.58
2022-09-13T03:18:58.384Z,41.82
2022-09-13T03:19:37.345Z,41.47
2022-09-13T03:20:09.580Z,41.37
2022-09-13T03:20:40.966Z,41.42
2022-09-13T03:21:11.888Z,41.40
2022-09-13T03:21:52.777Z,41.55
2022-09-13T03:22:32.952Z,41.37
2022-09-13T03:23:25.277Z,41.52
2022-09-13T03:24:01.114Z,41.73
2022-09-13T03:24:28.384Z,41.64
2022-09-13T03:24:58.490Z,41.81
2022-09-13T03:25:32.014Z,41.53
2022-09-13T03:26:24.884Z,41.72
2022-09-13T03:26:59.783Z,41.92
2022-09-13T03:27:33.213Z,42.05
2022-09-13T03:28:07.547Z,42.33
2022-09-13T03:28:39.280Z,42.65
2022-09-13T03:29:11.060Z,42.84
2022-09-13T03:29:42.622Z,43.55
2022-09-13T03:30:07.514Z,43.66
2022-09-13T03:30:30.735Z,43.64
2022-09-13T03:31:02.946Z,43.54
2022-09-13T03:31:33.884Z,43.80
2022-09-13T03:32:06.499Z,43.34
2022-09-13T03:32:36.199Z,42.97
2022-09-13T03:33:04.877Z,43.25
2022-09-13T03:33:34.659Z,43.04
2022-09-13T03:33:59.042Z,43.25
2022-09-13T03:34:33.916Z,43.31
2022-09-13T03:35:04.685Z,43.38
2022-09-13T03:35:32.529Z,43.26
2022-09-13T03:35:58.471Z,42.99
2022-09-13T03:36:26.700Z,42.94
2022-09-13T03:36:55.628Z,42.79
2022-09-13T03:37:25.175Z,43.15
2022-09-13T03:37:56.787Z,42.63
2022-09-13T03:38:24.974Z,42.49
2022-09-13T03:38:55.911Z,42.58
2022-09-13T03:39:25.931Z,42.56
2022-09-13T03:39:52.756Z,42.55
2022-09-13T03:40:17.765Z,42.42
2022-09-13T03:40:43.456Z,42.46
2022-09-13T03:41:09.098Z,43.27
2022-09-13T03:41:36.876Z,43.53
2022-09-13T03:42:05.696Z,43.13
2022-09-13T03:42:32.649Z,43.38
2022-09-13T03:43:02.568Z,43.08
2022-09-13T03:43:30.571Z,43.31
2022-09-13T03:43:57.008Z,44.14
2022-09-13T03:44:21.857Z,43.89
2022-09-13T03:44:48.576Z,43.36
2022-09-13T03:45:12.295Z,42.84
2022-09-13T03:45:39.888Z,42.65
2022-09-13T03:46:06.250Z,42.29
2022-09-13T03:46:32.452Z,42.40
2022-09-13T03:46:57.599Z,42.41
2022-09-13T03:47:22.818Z,41.97
2022-09-13T03:47:48.408Z,41.92
2022-09-13T03:48:13.260Z,41.91
2022-09-13T03:48:38.050Z,42.29
2022-09-13T03:49:03.095Z,42.01
2022-09-13T03:49:27.053Z,42.25
2022-09-13T03:49:51.902Z,42.16
2022-09-13T03:50:18.660Z,42.19
2022-09-13T03:50:41.039Z,42.37
2022-09-13T03:51:02.823Z,42.20
2022-09-13T03:51:25.764Z,41.90
2022-09-13T03:51:49.902Z,42.06
2022-09-13T03:52:12.383Z,41.98
2022-09-13T03:52:34.921Z,41.92
2022-09-13T03:53:00.552Z,41.78
2022-09-13T03:53:26.190Z,42.05
2022-09-13T03:53:56.323Z,41.62
2022-09-13T03:54:21.103Z,41.66
2022-09-13T03:54:43.732Z,41.61
2022-09-13T03:55:05.797Z,41.84
2022-09-13T03:55:29.100Z,42.37
2022-09-13T03:55:50.788Z,42.07
2022-09-13T03:56:13.998Z,41.70
2022-09-13T03:56:36.685Z,41.69
2022-09-13T03:57:09.738Z,41.69
2022-09-13T03:57:31.432Z,41.84
2022-09-13T03:57:53.078Z,41.75
2022-09-13T03:58:17.645Z,41.55
2022-09-13T03:58:39.258Z,41.97
2022-09-13T03:59:00.901Z,41.95
2022-09-13T03:59:22.607Z,42.06
2022-09-13T03:59:47.732Z,41.71
2022-09-13T04:00:14.869Z,41.73
2022-09-13T04:00:36.473Z,41.92
2022-09-13T04:00:58.123Z,41.74
2022-09-13T04:01:21.803Z,41.63
2022-09-13T04:01:44.520Z,41.66
2022-09-13T04:02:07.968Z,41.81
2022-09-13T04:02:31.045Z,41.80
2022-09-13T04:02:52.672Z,41.76
2022-09-13T04:03:15.693Z,41.81
2022-09-13T04:03:37.368Z,41.75
2022-09-13T04:03:59.066Z,41.77
2022-09-13T04:04:20.613Z,42.14
2022-09-13T04:04:44.950Z,41.91
2022-09-13T04:05:07.067Z,41.85
2022-09-13T04:05:28.646Z,41.97
2022-09-13T04:05:50.272Z,42.07
2022-09-13T04:06:11.924Z,42.38
2022-09-13T04:06:34.463Z,41.99
2022-09-13T04:06:56.855Z,42.02
2022-09-13T04:07:20.525Z,42.00
2022-09-13T04:07:42.168Z,42.00
2022-09-13T04:08:06.052Z,41.87
2022-09-13T04:08:27.699Z,41.64
2022-09-13T04:08:49.378Z,41.79
2022-09-13T04:09:11.512Z,41.85
2022-09-13T04:09:33.540Z,41.66
2022-09-13T04:09:56.249Z,41.71
2022-09-13T04:10:17.864Z,41.87
2022-09-13T04:10:40.604Z,41.93
2022-09-13T04:11:02.200Z,41.80
2022-09-13T04:11:24.871Z,41.54
2022-09-13T04:11:46.417Z,41.87
2022-09-13T04:12:09.986Z,41.89
2022-09-13T04:12:31.793Z,41.82
2022-09-13T04:12:55.361Z,42.15
2022-09-13T04:13:17.076Z,42.00
2022-09-13T04:13:38.692Z,41.96
2022-09-13T04:14:00.228Z,42.09
2022-09-13T04:14:26.346Z,42.28
2022-09-13T04:14:48.063Z,41.86
2022-09-13T04:15:10.005Z,41.89
2022-09-13T04:15:31.924Z,41.46
2022-09-13T04:15:54.460Z,41.77
2022-09-13T04:16:16.115Z,41.47
2022-09-13T04:16:37.710Z,41.70
2022-09-13T04:16:59.332Z,41.63
2022-09-13T04:17:21.917Z,42.37
2022-09-13T04:17:44.839Z,42.11
2022-09-13T04:18:06.439Z,42.09
2022-09-13T04:18:28.279Z,41.96
2022-09-13T04:18:50.793Z,41.70
2022-09-13T04:19:12.490Z,41.98
2022-09-13T04:19:34.233Z,41.91
2022-09-13T04:19:55.819Z,41.81
2022-09-13T04:20:19.021Z,41.47
2022-09-13T04:20:40.628Z,41.34
2022-09-13T04:21:02.684Z,41.17
2022-09-13T04:21:24.375Z,41.44
2022-09-13T04:21:48.716Z,41.39
2022-09-13T04:22:10.312Z,41.59
2022-09-13T04:22:32.037Z,41.44
2022-09-13T04:22:55.031Z,41.55
2022-09-13T04:23:16.680Z,41.14
2022-09-13T04:23:38.574Z,41.08
2022-09-13T04:24:00.164Z,41.45
2022-09-13T04:24:26.252Z,40.87
2022-09-13T04:24:47.868Z,41.28
2022-09-13T04:25:09.947Z,41.38
2022-09-13T04:25:31.560Z,41.16
2022-09-13T04:25:54.741Z,41.32
2022-09-13T04:26:16.642Z,41.41
2022-09-13T04:26:38.954Z,41.72
2022-09-13T04:27:01.451Z,42.06
2022-09-13T04:27:24.027Z,42.15
2022-09-13T04:27:45.576Z,41.95
2022-09-13T04:28:07.128Z,42.25
2022-09-13T04:28:28.734Z,42.18
2022-09-13T04:28:52.593Z,42.25
2022-09-13T04:29:15.156Z,42.03
2022-09-13T04:29:36.708Z,42.09
2022-09-13T04:29:58.266Z,42.10
2022-09-13T04:30:19.844Z,41.77
2022-09-13T04:30:45.117Z,41.36
2022-09-13T04:31:06.720Z,40.97
2022-09-13T04:31:28.368Z,41.12
2022-09-13T04:31:51.934Z,40.95
2022-09-13T04:32:15.457Z,41.19
2022-09-13T04:32:37.005Z,41.15
2022-09-13T04:32:59.925Z,41.01
2022-09-13T04:33:21.772Z,41.18
2022-09-13T04:33:44.390Z,40.67
2022-09-13T04:34:06.606Z,40.30
2022-09-13T04:34:28.170Z,40.32
2022-09-13T04:34:49.780Z,40.60
2022-09-13T04:35:11.991Z,40.63
2022-09-13T04:35:34.516Z,40.69
2022-09-13T04:35:58.486Z,40.63
2022-09-13T04:36:20.674Z,40.54
2022-09-13T04:36:42.924Z,40.30
2022-09-13T04:37:04.664Z,40.29
2022-09-13T04:37:27.197Z,40.34
2022-09-13T04:37:48.896Z,40.48
2022-09-13T04:38:10.996Z,40.31
2022-09-13T04:38:32.710Z,40.59
2022-09-13T04:38:55.273Z,40.56
2022-09-13T04:39:16.849Z,40.53
2022-09-13T04:39:38.442Z,40.77
2022-09-13T04:40:00.048Z,40.81
2022-09-13T04:40:22.940Z,40.35
2022-09-13T04:40:44.550Z,40.78
2022-09-13T04:41:06.641Z,40.63
2022-09-13T04:41:28.780Z,40.53
2022-09-13T04:41:51.935Z,40.57
2022-09-13T04:42:14.505Z,40.61
2022-09-13T04:42:36.271Z,40.78
2022-09-13T04:42:57.832Z,40.82
2022-09-13T04:43:19.385Z,40.52
2022-09-13T04:43:41.901Z,40.82
2022-09-13T04:44:03.584Z,40.57
2022-09-13T04:44:25.403Z,40.54
2022-09-13T04:44:50.029Z,40.77
2022-09-13T04:45:12.788Z,40.74
2022-09-13T04:45:34.401Z,40.91
2022-09-13T04:45:59.925Z,40.91
2022-09-13T04:46:22.634Z,40.73
2022-09-13T04:46:48.044Z,41.11
2022-09-13T04:47:10.117Z,40.97
2022-09-13T04:47:31.719Z,40.60
2022-09-13T04:47:55.064Z,40.55
2022-09-13T04:48:18.048Z,40.87
2022-09-13T04:48:39.637Z,40.86
2022-09-13T04:49:01.256Z,41.07
2022-09-13T04:49:23.851Z,40.87
2022-09-13T04:49:45.392Z,41.01
2022-09-13T04:50:07.504Z,40.75
2022-09-13T04:50:29.452Z,40.68
2022-09-13T04:50:51.985Z,40.78
2022-09-13T04:51:14.688Z,40.83
2022-09-13T04:51:36.486Z,41.07
2022-09-13T04:51:58.032Z,41.00
2022-09-13T04:52:20.751Z,41.08
2022-09-13T04:52:42.345Z,41.04
2022-09-13T04:53:03.940Z,41.18
2022-09-13T04:53:25.663Z,41.05
2022-09-13T04:53:52.685Z,41.22
2022-09-13T04:54:16.124Z,41.23
2022-09-13T04:54:38.103Z,40.96
2022-09-13T04:55:01.590Z,41.38
2022-09-13T04:55:25.989Z,41.25
2022-09-13T04:55:47.595Z,41.19
2022-09-13T04:56:09.510Z,41.10
2022-09-13T04:56:31.143Z,40.92
2022-09-13T04:56:55.083Z,41.09
2022-09-13T04:57:16.784Z,41.28
2022-09-13T04:57:38.370Z,41.39
2022-09-13T04:57:59.996Z,41.28
2022-09-13T04:58:22.988Z,41.34
2022-09-13T04:58:44.608Z,41.31
2022-09-13T04:59:07.023Z,41.58
2022-09-13T04:59:29.559Z,42.09
2022-09-13T04:59:51.183Z,41.85
2022-09-13T05:00:13.172Z,41.95
2022-09-13T05:00:35.508Z,41.70
2022-09-13T05:01:02.227Z,41.91
2022-09-13T05:01:27.689Z,42.00
2022-09-13T05:01:49.696Z,41.81
2022-09-13T05:02:12.554Z,42.00
2022-09-13T05:02:34.475Z,41.99
2022-09-13T05:02:56.401Z,41.51
2022-09-13T05:03:19.312Z,41.34
2022-09-13T05:03:40.903Z,41.37
2022-09-13T05:04:04.164Z,41.64
2022-09-13T05:04:25.943Z,41.45
2022-09-13T05:04:47.556Z,41.71
2022-09-13T05:05:09.464Z,41.79
2022-09-13T05:05:32.478Z,41.45
2022-09-13T05:05:54.039Z,41.83
2022-09-13T05:06:17.951Z,42.37
2022-09-13T05:06:39.637Z,41.92
2022-09-13T05:07:02.228Z,41.31
2022-09-13T05:07:23.906Z,41.20
2022-09-13T05:07:45.592Z,41.08
2022-09-13T05:08:07.173Z,42.43
2022-09-13T05:08:29.775Z,41.66
2022-09-13T05:08:55.494Z,41.41
2022-09-13T05:09:17.334Z,41.12
2022-09-13T05:09:39.912Z,41.01
2022-09-13T05:10:01.529Z,41.18
2022-09-13T05:10:23.261Z,40.98
2022-09-13T05:10:46.804Z,40.94
2022-09-13T05:11:09.438Z,41.80
2022-09-13T05:11:31.429Z,41.83
2022-09-13T05:11:53.210Z,41.67
2022-09-13T05:12:15.793Z,41.22
2022-09-13T05:12:37.400Z,41.15
2022-09-13T05:12:59.001Z,41.31
2022-09-13T05:13:20.616Z,41.10
2022-09-13T05:13:43.189Z,41.29
2022-09-13T05:14:05.693Z,41.41
2022-09-13T05:14:27.382Z,42.18
2022-09-13T05:14:49.944Z,42.44
2022-09-13T05:15:12.363Z,43.08
2022-09-13T05:15:33.989Z,43.97
2022-09-13T05:15:56.828Z,43.04
2022-09-13T05:16:19.743Z,42.15
2022-09-13T05:16:41.734Z,41.61
2022-09-13T05:17:03.639Z,41.22
2022-09-13T05:17:27.264Z,42.03
2022-09-13T05:17:48.869Z,42.06
2022-09-13T05:18:10.529Z,42.06
2022-09-13T05:18:34.782Z,41.46
2022-09-13T05:18:57.960Z,41.56
2022-09-13T05:19:19.569Z,42.23
2022-09-13T05:19:41.239Z,42.26
2022-09-13T05:20:04.251Z,43.48
2022-09-13T05:20:26.924Z,44.44
2022-09-13T05:20:48.592Z,42.65
2022-09-13T05:21:10.194Z,42.16
2022-09-13T05:21:31.909Z,41.74
2022-09-13T05:21:54.570Z,41.71
2022-09-13T05:22:16.191Z,42.19
2022-09-13T05:22:38.018Z,41.75
2022-09-13T05:22:59.799Z,41.83
2022-09-13T05:23:21.620Z,41.55
2022-09-13T05:23:44.241Z,41.54
2022-09-13T05:24:06.057Z,41.55
2022-09-13T05:24:27.632Z,41.56
2022-09-13T05:24:49.366Z,42.20
2022-09-13T05:25:12.001Z,41.96
2022-09-13T05:25:33.656Z,42.11
2022-09-13T05:25:56.233Z,41.57
2022-09-13T05:26:18.672Z,41.57
2022-09-13T05:26:41.221Z,40.90
2022-09-13T05:27:02.804Z,41.07
2022-09-13T05:27:24.429Z,40.83
2022-09-13T05:27:46.047Z,40.83
2022-09-13T05:28:07.653Z,40.87
2022-09-13T05:28:32.443Z,40.85
2022-09-13T05:28:54.039Z,40.56
2022-09-13T05:29:15.679Z,40.52
2022-09-13T05:29:37.289Z,40.32
2022-09-13T05:29:58.899Z,40.24
2022-09-13T05:30:21.657Z,40.81
2022-09-13T05:30:43.268Z,40.63
2022-09-13T05:31:07.745Z,40.92
2022-09-13T05:31:31.928Z,40.27
2022-09-13T05:31:54.505Z,40.12
2022-09-13T05:32:16.071Z,40.09
2022-09-13T05:32:37.681Z,40.37